Time;durP1;ratioP1;P1;durP2;ratioP2;P2;SDS_P1;SDS_P2;PMS_P1;PMS_P2;Temp;Humidity;BMP_temperature;BMP_pressure;BME280_temperature;BME280_humidity;BME280_pressure;Samples;Min_cycle;Max_cycle;Signal;HPM_P1;HPM_P2
2021/10/04 00:00:38;;;;;;;4.97;1.70;;;11.80;85.20;;;;;;5075417;28;20079;-53
2021/10/04 00:03:04;;;;;;;6.75;1.30;;;11.80;85.30;;;;;;5075008;28;20033;-50
2021/10/04 00:05:30;;;;;;;5.18;1.88;;;11.80;85.30;;;;;;5074926;28;20120;-49
2021/10/04 00:07:55;;;;;;;2.72;1.10;;;11.80;85.50;;;;;;5075033;28;20017;-51
2021/10/04 00:10:21;;;;;;;3.45;1.23;;;11.80;85.40;;;;;;5075019;28;20516;-50
2021/10/04 00:12:48;;;;;;;2.10;1.60;;;11.80;85.50;;;;;;5075059;28;20032;-51
2021/10/04 00:15:16;;;;;;;2.13;1.35;;;11.70;85.30;;;;;;5074759;28;20047;-52
2021/10/04 00:17:43;;;;;;;2.42;1.30;;;11.80;85.30;;;;;;5074927;28;20021;-52
2021/10/04 00:20:11;;;;;;;2.80;1.08;;;11.80;85.20;;;;;;5074752;28;20025;-52
2021/10/04 00:22:37;;;;;;;2.47;1.73;;;11.80;85.30;;;;;;5074891;28;20385;-51
2021/10/04 00:25:04;;;;;;;4.30;2.22;;;11.80;85.20;;;;;;5075469;28;20048;-51
2021/10/04 00:27:30;;;;;;;2.38;1.10;;;11.80;85.40;;;;;;5074975;28;20435;-49
2021/10/04 00:29:56;;;;;;;2.65;1.10;;;11.80;85.40;;;;;;5074714;28;20096;-48
2021/10/04 00:32:21;;;;;;;3.15;1.10;;;11.60;86.00;;;;;;5074599;28;20021;-50
2021/10/04 00:34:47;;;;;;;3.38;1.10;;;11.50;86.10;;;;;;5074761;28;20479;-49
2021/10/04 00:37:13;;;;;;;2.55;1.33;;;11.60;86.40;;;;;;5074493;28;20103;-51
2021/10/04 00:39:38;;;;;;;4.15;1.50;;;11.70;85.60;;;;;;5074290;28;20024;-53
2021/10/04 00:42:04;;;;;;;2.63;1.20;;;11.80;85.20;;;;;;5074175;28;20023;-51
2021/10/04 00:44:30;;;;;;;1.33;0.90;;;11.80;85.00;;;;;;5074136;28;20029;-47
2021/10/04 00:46:57;;;;;;;2.83;0.98;;;11.70;85.30;;;;;;5074105;28;20090;-48
2021/10/04 00:49:23;;;;;;;2.90;1.30;;;11.80;85.10;;;;;;5074014;28;20040;-48
2021/10/04 00:51:49;;;;;;;1.30;1.00;;;11.90;84.70;;;;;;5074110;28;20029;-50
2021/10/04 00:54:15;;;;;;;2.53;1.00;;;11.80;85.30;;;;;;5073836;28;20023;-47
2021/10/04 00:56:41;;;;;;;2.42;1.20;;;11.80;84.70;;;;;;5055965;28;20496;-50
2021/10/04 00:59:07;;;;;;;2.42;1.40;;;11.80;85.00;;;;;;5073672;28;20103;-51
2021/10/04 01:01:32;;;;;;;1.80;0.75;;;11.80;85.00;;;;;;5073736;28;20036;-48
2021/10/04 01:03:59;;;;;;;3.55;1.30;;;11.80;85.30;;;;;;5073443;28;20044;-51
2021/10/04 01:06:27;;;;;;;2.28;1.10;;;11.70;85.40;;;;;;5073690;28;20040;-50
2021/10/04 01:08:53;;;;;;;1.80;0.90;;;11.70;85.80;;;;;;5073412;28;20504;-51
2021/10/04 01:11:19;;;;;;;7.70;1.90;;;11.70;85.60;;;;;;5073328;28;20046;-48
2021/10/04 01:13:46;;;;;;;2.08;1.33;;;11.70;85.20;;;;;;5073742;28;20045;-51
2021/10/04 01:16:12;;;;;;;2.78;1.00;;;11.80;85.00;;;;;;5073566;28;20063;-49
2021/10/04 01:18:38;;;;;;;2.95;1.98;;;11.80;85.00;;;;;;5073502;28;20037;-50
2021/10/04 01:21:04;;;;;;;2.28;0.75;;;11.80;84.90;;;;;;5073444;28;20032;-49
2021/10/04 01:23:36;;;;;;;6.95;1.23;;;11.80;84.60;;;;;;5073515;28;20021;-49
2021/10/04 01:26:01;;;;;;;4.95;1.25;;;11.80;84.90;;;;;;5073341;28;20020;-49
2021/10/04 01:28:28;;;;;;;3.97;0.82;;;11.80;85.30;;;;;;5072882;28;20053;-48
2021/10/04 01:30:54;;;;;;;2.28;0.70;;;11.80;84.60;;;;;;5073583;28;20024;-51
2021/10/04 01:33:23;;;;;;;4.68;0.93;;;11.80;84.80;;;;;;5074349;28;20020;-50
2021/10/04 01:35:49;;;;;;;4.43;1.35;;;11.80;84.80;;;;;;5074004;28;20028;-48
2021/10/04 01:38:15;;;;;;;2.25;1.58;;;11.80;85.10;;;;;;5074357;28;20068;-50
2021/10/04 01:40:43;;;;;;;0.95;0.88;;;11.80;85.30;;;;;;5073853;28;20460;-52
2021/10/04 01:43:13;;;;;;;5.10;1.10;;;11.90;84.50;;;;;;5074364;28;20071;-51
2021/10/04 01:45:45;;;;;;;2.65;1.20;;;11.90;84.40;;;;;;5073943;28;20035;-52
2021/10/04 01:48:10;;;;;;;2.72;0.60;;;11.90;84.50;;;;;;5055978;28;20119;-48
2021/10/04 01:50:37;;;;;;;3.00;0.93;;;11.80;85.00;;;;;;5073309;28;20517;-48
2021/10/04 01:53:07;;;;;;;1.35;0.90;;;11.90;84.80;;;;;;5073312;28;20024;-49
2021/10/04 01:55:33;;;;;;;1.77;1.15;;;11.80;84.90;;;;;;5073495;28;20020;-51
2021/10/04 01:57:59;;;;;;;0.95;0.85;;;11.80;84.80;;;;;;5073319;28;20031;-50
2021/10/04 02:00:26;;;;;;;2.60;1.08;;;11.90;84.50;;;;;;5073938;28;20472;-52
2021/10/04 02:02:54;;;;;;;1.83;1.08;;;11.90;84.50;;;;;;5073603;28;20021;-47
2021/10/04 02:05:20;;;;;;;24.65;2.90;;;11.90;84.70;;;;;;5072906;28;20048;-49
2021/10/04 02:07:50;;;;;;;1.65;0.93;;;12.00;84.30;;;;;;5073593;28;20419;-50
2021/10/04 02:10:19;;;;;;;3.13;1.25;;;11.90;84.40;;;;;;5054911;28;20024;-49
2021/10/04 02:12:46;;;;;;;4.25;0.98;;;11.90;84.50;;;;;;5072971;28;20055;-52
2021/10/04 02:15:12;;;;;;;3.05;0.80;;;11.80;85.10;;;;;;5072489;28;20042;-48
2021/10/04 02:17:38;;;;;;;4.57;0.90;;;11.80;84.60;;;;;;5072340;28;20021;-52
2021/10/04 02:20:06;;;;;;;2.45;1.27;;;11.90;84.40;;;;;;5072356;28;20465;-48
2021/10/04 02:22:32;;;;;;;1.58;0.88;;;11.80;84.50;;;;;;5072530;28;20017;-48
2021/10/04 02:24:58;;;;;;;7.93;1.27;;;11.70;85.10;;;;;;5072434;28;20024;-51
2021/10/04 02:27:24;;;;;;;1.40;0.80;;;11.70;85.50;;;;;;5072732;28;20035;-48
2021/10/04 02:29:49;;;;;;;1.65;0.85;;;11.60;85.50;;;;;;5054622;28;20029;-49
2021/10/04 02:32:15;;;;;;;3.70;1.40;;;11.80;84.90;;;;;;5072820;28;20024;-53
2021/10/04 02:34:40;;;;;;;3.58;1.15;;;11.80;84.90;;;;;;5072558;28;20468;-50
2021/10/04 02:37:06;;;;;;;4.63;0.70;;;11.70;85.00;;;;;;5072617;28;20064;-50
2021/10/04 02:39:32;;;;;;;2.15;1.10;;;11.70;85.30;;;;;;5058372;28;20063;-51
2021/10/04 02:41:57;;;;;;;1.75;0.98;;;11.70;85.70;;;;;;5076796;28;20031;-47
2021/10/04 02:44:23;;;;;;;2.58;1.02;;;11.60;85.90;;;;;;5076619;28;20028;-49
2021/10/04 02:46:49;;;;;;;4.30;1.00;;;11.70;85.80;;;;;;5076307;28;20028;-48
2021/10/04 02:49:14;;;;;;;4.57;0.80;;;11.80;84.90;;;;;;5076370;28;20028;-48
2021/10/04 02:51:40;;;;;;;1.95;0.77;;;11.80;85.10;;;;;;5076449;28;20468;-48
2021/10/04 02:54:06;;;;;;;5.85;1.05;;;11.70;85.30;;;;;;5076336;28;20465;-48
2021/10/04 02:56:31;;;;;;;4.80;1.30;;;11.70;85.20;;;;;;5076271;28;20644;-52
2021/10/04 02:58:57;;;;;;;4.28;0.88;;;11.70;85.10;;;;;;5076216;28;20050;-50
2021/10/04 03:01:23;;;;;;;2.70;1.08;;;11.80;84.80;;;;;;5076527;28;20024;-47
2021/10/04 03:03:48;;;;;;;2.58;1.13;;;11.80;84.70;;;;;;5075670;28;20465;-49
2021/10/04 03:06:14;;;;;;;3.08;1.48;;;11.80;85.30;;;;;;5076100;28;20028;-49
2021/10/04 03:08:40;;;;;;;1.52;1.23;;;11.80;84.90;;;;;;5076008;28;20038;-51
2021/10/04 03:11:05;;;;;;;0.77;0.68;;;11.80;85.00;;;;;;5075988;28;20028;-47
2021/10/04 03:13:31;;;;;;;2.08;1.23;;;11.70;85.00;;;;;;5075900;28;20027;-49
2021/10/04 03:15:57;;;;;;;4.53;1.10;;;11.70;85.40;;;;;;5075809;28;20036;-52
2021/10/04 03:18:23;;;;;;;3.58;1.10;;;11.80;85.00;;;;;;5076463;28;20407;-47
2021/10/04 03:20:48;;;;;;;7.20;2.10;;;11.80;85.10;;;;;;5075901;28;20364;-47
2021/10/04 03:23:14;;;;;;;3.83;1.20;;;11.70;85.40;;;;;;5076124;28;20028;-47
2021/10/04 03:25:40;;;;;;;2.80;1.00;;;11.70;85.40;;;;;;5075823;28;20031;-48
2021/10/04 03:28:06;;;;;;;5.65;1.17;;;11.60;85.60;;;;;;5075533;28;20024;-48
2021/10/04 03:30:33;;;;;;;1.42;0.90;;;11.50;86.20;;;;;;5075576;28;20028;-47
2021/10/04 03:33:03;;;;;;;4.30;1.00;;;11.60;86.00;;;;;;5075511;28;20021;-48
2021/10/04 03:35:29;;;;;;;1.95;1.05;;;11.60;86.00;;;;;;5075828;28;20024;-51
2021/10/04 03:37:54;;;;;;;4.35;1.00;;;11.50;85.80;;;;;;5075683;28;20155;-49
2021/10/04 03:40:20;;;;;;;1.60;1.17;;;11.50;86.20;;;;;;5075618;28;20056;-50
2021/10/04 03:42:46;;;;;;;2.80;1.23;;;11.40;86.30;;;;;;5075298;28;20036;-51
2021/10/04 03:45:13;;;;;;;0.82;0.82;;;11.50;86.20;;;;;;5075272;28;20107;-51
2021/10/04 03:47:41;;;;;;;1.98;0.98;;;11.60;85.90;;;;;;5075180;28;20032;-49
2021/10/04 03:50:09;;;;;;;3.45;1.05;;;11.70;85.60;;;;;;5074505;28;20060;-48
2021/10/04 03:52:36;;;;;;;2.30;1.35;;;11.70;85.30;;;;;;5075213;28;20419;-51
2021/10/04 03:55:04;;;;;;;5.00;1.55;;;11.80;85.30;;;;;;5075373;28;20469;-49
2021/10/04 03:57:30;;;;;;;5.53;1.23;;;11.60;85.60;;;;;;5074984;28;20449;-51
2021/10/04 03:59:56;;;;;;;3.22;0.98;;;11.50;86.10;;;;;;5074831;28;20060;-48
2021/10/04 04:02:22;;;;;;;2.10;0.80;;;11.50;86.20;;;;;;5056919;28;20037;-49
2021/10/04 04:04:48;;;;;;;2.05;1.05;;;11.50;86.30;;;;;;5074828;28;20077;-47
2021/10/04 04:07:13;;;;;;;1.42;0.85;;;11.70;85.70;;;;;;5074944;28;20036;-47
2021/10/04 04:09:39;;;;;;;3.45;0.93;;;11.70;85.50;;;;;;5076469;28;20035;-47
2021/10/04 04:12:05;;;;;;;2.67;1.15;;;11.60;85.70;;;;;;5057124;28;20020;-48
2021/10/04 04:14:31;;;;;;;4.85;1.35;;;11.50;86.20;;;;;;5075066;28;20028;-49
2021/10/04 04:16:56;;;;;;;6.18;0.93;;;11.40;86.60;;;;;;5056653;28;20499;-49
2021/10/04 04:19:22;;;;;;;2.25;1.00;;;11.40;86.60;;;;;;5074875;28;20036;-50
2021/10/04 04:21:48;;;;;;;3.20;1.00;;;11.30;86.80;;;;;;5074569;28;20059;-48
2021/10/04 04:24:17;;;;;;;1.48;0.90;;;11.30;87.00;;;;;;5074441;28;20450;-51
2021/10/04 04:26:46;;;;;;;1.05;0.95;;;11.30;86.90;;;;;;5074290;28;20060;-49
2021/10/04 04:29:12;;;;;;;5.45;1.05;;;11.30;87.00;;;;;;5074697;28;20492;-49
2021/10/04 04:31:38;;;;;;;5.30;1.30;;;11.30;87.20;;;;;;5074402;28;20017;-49
2021/10/04 04:34:03;;;;;;;3.05;0.90;;;11.40;87.10;;;;;;5074337;28;20032;-55
2021/10/04 04:36:29;;;;;;;4.60;2.13;;;11.40;86.90;;;;;;5074151;28;20028;-48
2021/10/04 04:38:54;;;;;;;2.22;1.42;;;11.60;86.40;;;;;;5074234;28;20538;-52
2021/10/04 04:41:20;;;;;;;4.05;1.20;;;11.60;86.20;;;;;;5074462;28;20029;-50
2021/10/04 04:43:46;;;;;;;2.17;1.05;;;11.60;86.30;;;;;;5074254;28;20472;-48
2021/10/04 04:46:11;;;;;;;6.65;1.20;;;11.60;86.50;;;;;;5074343;28;20127;-52
2021/10/04 04:48:37;;;;;;;1.95;1.10;;;11.70;86.10;;;;;;5074084;28;20020;-51
2021/10/04 04:51:03;;;;;;;7.07;1.65;;;11.70;85.70;;;;;;5074263;28;20039;-49
2021/10/04 04:53:29;;;;;;;5.00;1.27;;;11.80;85.40;;;;;;5073971;28;20354;-49
2021/10/04 04:55:54;;;;;;;3.38;1.15;;;11.80;85.40;;;;;;5073869;28;20029;-52
2021/10/04 04:58:21;;;;;;;4.72;2.15;;;11.70;85.70;;;;;;5073998;28;20078;-52
2021/10/04 05:00:46;;;;;;;2.25;1.33;;;11.80;85.70;;;;;;5073571;28;20036;-48
2021/10/04 05:03:13;;;;;;;4.15;1.30;;;11.80;85.50;;;;;;5073772;28;20089;-47
2021/10/04 05:05:39;;;;;;;6.18;1.35;;;11.60;86.00;;;;;;5073733;28;20048;-49
2021/10/04 05:08:05;;;;;;;2.97;1.15;;;11.60;86.10;;;;;;5074370;28;20021;-49
2021/10/04 05:10:31;;;;;;;1.08;0.98;;;11.60;86.50;;;;;;5073793;28;20024;-49
2021/10/04 05:12:56;;;;;;;8.57;1.55;;;11.70;86.10;;;;;;5073820;28;20385;-51
2021/10/04 05:15:22;;;;;;;5.53;2.10;;;11.50;86.50;;;;;;5055645;28;20025;-49
2021/10/04 05:17:48;;;;;;;4.93;1.45;;;11.50;86.70;;;;;;5073647;28;20508;-49
2021/10/04 05:20:13;;;;;;;1.27;1.08;;;11.50;87.00;;;;;;5073176;28;20501;-49
2021/10/04 05:22:39;;;;;;;1.77;1.00;;;11.50;87.10;;;;;;5073107;28;20016;-50
2021/10/04 05:25:07;;;;;;;4.75;1.15;;;11.60;86.80;;;;;;5055649;28;20024;-50
2021/10/04 05:27:33;;;;;;;2.28;1.38;;;11.60;86.70;;;;;;5073052;28;20035;-49
2021/10/04 05:29:59;;;;;;;16.02;1.23;;;11.70;86.50;;;;;;5073423;28;20033;-51
2021/10/04 05:32:25;;;;;;;4.15;1.35;;;11.60;86.30;;;;;;5073044;28;20358;-49
2021/10/04 05:34:50;;;;;;;1.95;1.00;;;11.50;86.70;;;;;;5055715;28;20025;-49
2021/10/04 05:37:16;;;;;;;6.88;1.25;;;11.50;87.10;;;;;;5073184;28;20031;-48
2021/10/04 05:39:42;;;;;;;1.65;1.10;;;11.40;87.30;;;;;;5072815;28;20138;-48
2021/10/04 05:42:08;;;;;;;4.97;1.20;;;11.50;87.10;;;;;;5072907;28;20085;-48
2021/10/04 05:44:34;;;;;;;3.47;1.63;;;11.50;87.30;;;;;;5072902;28;20025;-49
2021/10/04 05:46:59;;;;;;;2.35;1.40;;;11.60;86.90;;;;;;5073145;28;20361;-52
2021/10/04 05:49:25;;;;;;;4.35;1.35;;;11.60;87.00;;;;;;5073248;28;20028;-48
2021/10/04 05:51:51;;;;;;;2.30;1.20;;;11.60;87.20;;;;;;5072756;28;20020;-51
2021/10/04 05:54:17;;;;;;;4.93;1.08;;;11.80;86.30;;;;;;5072994;28;20062;-51
2021/10/04 05:56:42;;;;;;;6.43;1.48;;;11.80;85.90;;;;;;5072835;28;20033;-47
2021/10/04 05:59:08;;;;;;;5.53;1.10;;;11.90;85.90;;;;;;5073008;28;20024;-48
2021/10/04 06:01:34;;;;;;;9.00;1.77;;;11.90;85.50;;;;;;5072766;28;20029;-53
2021/10/04 06:03:59;;;;;;;16.52;2.00;;;11.80;85.90;;;;;;5072587;28;20127;-52
2021/10/04 06:06:25;;;;;;;1.70;1.23;;;11.90;85.70;;;;;;5072436;28;20384;-52
2021/10/04 06:08:50;;;;;;;7.97;1.42;;;11.90;85.40;;;;;;5072839;28;20029;-52
2021/10/04 06:11:16;;;;;;;3.85;1.00;;;12.00;85.40;;;;;;5072707;28;20385;-49
2021/10/04 06:13:42;;;;;;;4.63;1.65;;;11.80;85.40;;;;;;5072465;28;20056;-49
2021/10/04 06:16:07;;;;;;;1.75;1.00;;;11.80;85.80;;;;;;5072486;28;20567;-51
2021/10/04 06:18:33;;;;;;;2.03;1.20;;;11.80;85.60;;;;;;5072228;28;20033;-51
2021/10/04 06:20:59;;;;;;;6.15;2.55;;;11.90;85.50;;;;;;5072242;28;20040;-49
2021/10/04 06:23:24;;;;;;;4.53;1.65;;;12.00;85.40;;;;;;5072301;28;20035;-49
2021/10/04 06:25:51;;;;;;;3.15;1.42;;;12.00;85.50;;;;;;5072029;28;20514;-48
2021/10/04 06:28:17;;;;;;;2.22;1.23;;;12.10;85.40;;;;;;5072464;28;20024;-48
2021/10/04 06:30:42;;;;;;;16.23;6.85;;;12.00;85.30;;;;;;5072154;28;20039;-51
2021/10/04 06:33:08;;;;;;;1.92;1.45;;;12.00;85.60;;;;;;5054667;28;20035;-50
2021/10/04 06:35:34;;;;;;;3.13;1.45;;;12.00;85.70;;;;;;5054138;28;20123;-49
2021/10/04 06:38:01;;;;;;;1.08;0.82;;;12.10;85.30;;;;;;5072217;28;20074;-49
2021/10/04 06:40:26;;;;;;;5.15;1.20;;;12.00;85.70;;;;;;5054221;28;20029;-48
2021/10/04 06:42:52;;;;;;;4.10;1.40;;;12.00;85.80;;;;;;5072075;28;20034;-49
2021/10/04 06:45:18;;;;;;;5.25;1.20;;;11.90;85.90;;;;;;5072171;28;20033;-49
2021/10/04 06:47:43;;;;;;;1.38;0.98;;;11.90;85.80;;;;;;5072182;28;20040;-50
2021/10/04 06:50:10;;;;;;;4.97;1.63;;;12.00;85.90;;;;;;5072070;28;20023;-50
2021/10/04 06:52:38;;;;;;;2.25;1.15;;;12.00;85.50;;;;;;5071565;28;20029;-53
2021/10/04 06:55:04;;;;;;;3.53;1.17;;;12.10;85.40;;;;;;5071996;28;20028;-48
2021/10/04 06:57:30;;;;;;;2.85;1.02;;;12.20;85.10;;;;;;5053496;28;20108;-51
2021/10/04 06:59:55;;;;;;;9.35;1.52;;;12.30;84.40;;;;;;5071596;28;20081;-48
2021/10/04 07:02:21;;;;;;;8.23;1.60;;;12.30;84.60;;;;;;5053918;28;20043;-48
2021/10/04 07:04:47;;;;;;;3.10;1.33;;;12.40;84.30;;;;;;5071810;28;20048;-50
2021/10/04 07:07:14;;;;;;;2.70;1.15;;;12.50;83.90;;;;;;5072187;28;20143;-48
2021/10/04 07:09:40;;;;;;;2.80;1.35;;;12.50;83.60;;;;;;5072047;28;20477;-49
2021/10/04 07:12:07;;;;;;;3.05;1.40;;;12.30;84.40;;;;;;5053788;28;20027;-51
2021/10/04 07:14:32;;;;;;;5.45;1.20;;;12.30;84.50;;;;;;5071412;28;20453;-49
2021/10/04 07:16:58;;;;;;;2.35;1.20;;;12.50;84.00;;;;;;5053601;28;20572;-48
2021/10/04 07:19:23;;;;;;;2.92;1.70;;;12.60;83.40;;;;;;5071638;28;20028;-48
2021/10/04 07:21:52;;;;;;;1.60;1.25;;;12.50;84.00;;;;;;5053456;28;20473;-49
2021/10/04 07:24:20;;;;;;;2.92;1.33;;;12.50;84.00;;;;;;5071294;28;20048;-49
2021/10/04 07:26:47;;;;;;;3.28;1.10;;;12.70;83.90;;;;;;5075400;28;20041;-52
2021/10/04 07:29:15;;;;;;;4.72;1.58;;;12.80;83.10;;;;;;5075297;28;20031;-49
2021/10/04 07:31:40;;;;;;;8.48;1.30;;;12.90;82.70;;;;;;5056904;28;20025;-50
2021/10/04 07:34:06;;;;;;;6.45;1.98;;;13.00;82.50;;;;;;5075103;28;20039;-49
2021/10/04 07:36:34;;;;;;;8.00;1.25;;;13.10;82.70;;;;;;5074668;28;20108;-51
2021/10/04 07:39:00;;;;;;;3.50;1.60;;;13.10;82.90;;;;;;5074466;28;20477;-52
2021/10/04 07:41:25;;;;;;;5.07;2.15;;;13.00;82.70;;;;;;5074965;28;20469;-47
2021/10/04 07:43:51;;;;;;;6.65;1.30;;;13.20;82.00;;;;;;5074562;28;20029;-37
2021/10/04 07:46:17;;;;;;;2.72;1.45;;;13.20;82.30;;;;;;5074835;28;20027;-38
2021/10/04 07:48:42;;;;;;;6.13;1.73;;;13.50;80.90;;;;;;5074998;28;20100;-38
2021/10/04 07:51:11;;;;;;;7.68;1.38;;;13.60;80.40;;;;;;5074467;28;20020;-37
2021/10/04 07:53:39;;;;;;;2.88;1.35;;;13.60;80.80;;;;;;5074674;28;20394;-39
2021/10/04 07:56:04;;;;;;;12.85;1.60;;;13.70;80.60;;;;;;5074685;28;20016;-37
2021/10/04 07:58:31;;;;;;;4.15;1.48;;;13.70;80.60;;;;;;5075026;28;20054;-37
2021/10/04 08:00:56;;;;;;;8.85;2.00;;;13.80;80.00;;;;;;5074352;28;20055;-37
2021/10/04 08:03:22;;;;;;;6.00;1.73;;;13.70;80.00;;;;;;5074581;28;20032;-37
2021/10/04 08:05:48;;;;;;;2.75;1.70;;;13.80;80.10;;;;;;5073799;28;20049;-38
2021/10/04 08:08:13;;;;;;;3.65;1.58;;;13.90;79.50;;;;;;5074403;28;20031;-38
2021/10/04 08:10:39;;;;;;;1.10;1.00;;;14.00;79.60;;;;;;5074478;28;20021;-37
2021/10/04 08:13:05;;;;;;;5.00;1.77;;;13.90;79.50;;;;;;5073982;28;20477;-38
2021/10/04 08:15:31;;;;;;;5.00;2.20;;;14.00;80.00;;;;;;5074351;28;20025;-37
2021/10/04 08:17:57;;;;;;;6.72;1.60;;;14.30;78.70;;;;;;5073984;28;20457;-37
2021/10/04 08:20:23;;;;;;;2.67;1.13;;;14.50;77.90;;;;;;5074220;28;20056;-37
2021/10/04 08:22:49;;;;;;;2.03;1.10;;;14.40;77.90;;;;;;5074855;28;20108;-38
2021/10/04 08:25:15;;;;;;;7.20;2.65;;;14.40;77.80;;;;;;5073832;28;20024;-37
2021/10/04 08:27:41;;;;;;;7.88;1.55;;;14.50;77.80;;;;;;5073491;28;20031;-36
2021/10/04 08:30:07;;;;;;;9.45;3.22;;;14.30;78.20;;;;;;5056194;28;20159;-37
2021/10/04 08:32:32;;;;;;;6.88;2.00;;;14.00;79.30;;;;;;5073877;28;20035;-37
2021/10/04 08:34:58;;;;;;;6.28;1.63;;;14.20;78.90;;;;;;5073876;28;20020;-37
2021/10/04 08:37:24;;;;;;;4.13;1.40;;;14.20;78.50;;;;;;5055744;28;20476;-37
2021/10/04 08:39:49;;;;;;;2.92;1.23;;;14.20;78.90;;;;;;5073461;28;20025;-37
2021/10/04 08:42:17;;;;;;;3.92;1.38;;;14.30;78.30;;;;;;5055693;28;20349;-37
2021/10/04 08:44:42;;;;;;;5.38;1.77;;;14.40;78.00;;;;;;5073673;28;20032;-38
2021/10/04 08:47:08;;;;;;;4.03;1.25;;;14.40;78.30;;;;;;5073559;28;20039;-37
2021/10/04 08:49:34;;;;;;;2.83;1.30;;;14.60;77.60;;;;;;5073224;28;20473;-37
2021/10/04 08:52:01;;;;;;;3.75;1.85;;;14.80;76.90;;;;;;5055221;28;20020;-38
2021/10/04 08:54:29;;;;;;;4.82;1.77;;;14.80;77.10;;;;;;5073342;28;20054;-37
2021/10/04 08:56:55;;;;;;;4.55;1.45;;;14.60;78.20;;;;;;5074041;28;20039;-37
2021/10/04 08:59:21;;;;;;;4.47;1.88;;;14.50;78.20;;;;;;5073263;28;20021;-37
2021/10/04 09:01:47;;;;;;;4.32;1.33;;;14.70;78.20;;;;;;5073144;28;20032;-38
2021/10/04 09:04:19;;;;;;;1.83;1.02;;;14.80;77.40;;;;;;5072954;28;20189;-37
2021/10/04 09:06:45;;;;;;;9.90;1.65;;;15.00;75.80;;;;;;5073727;28;20029;-39
2021/10/04 09:09:13;;;;;;;11.95;1.98;;;15.00;76.30;;;;;;5073426;28;20358;-38
2021/10/04 09:11:41;;;;;;;6.85;1.23;;;14.90;76.00;;;;;;5073627;28;20051;-38
2021/10/04 09:14:07;;;;;;;5.13;1.33;;;14.80;76.80;;;;;;5073255;28;20099;-37
2021/10/04 09:16:50;;;;;;;6.22;1.55;;;15.20;75.40;;;;;;5072788;28;20202;-38
2021/10/04 09:19:21;;;;;;;15.82;2.25;;;15.30;75.10;;;;;;5072842;28;20126;-38
2021/10/04 09:22:07;;;;;;;6.55;2.00;;;15.40;74.10;;;;;;5073235;28;20028;-37
2021/10/04 09:24:54;;;;;;;4.07;1.65;;;15.60;74.10;;;;;;5072858;28;20024;-38
2021/10/04 09:27:23;;;;;;;4.95;1.25;;;15.80;73.10;;;;;;5058737;28;20044;-38
2021/10/04 09:29:50;;;;;;;5.13;1.40;;;15.70;73.80;;;;;;5073033;28;20044;-39
2021/10/04 09:32:27;;;;;;;8.45;1.42;;;16.10;71.50;;;;;;5073242;28;20380;-37
2021/10/04 09:35:14;;;;;;;9.07;2.50;;;16.40;69.60;;;;;;5073488;28;20028;-39
2021/10/04 09:37:42;;;;;;;9.23;3.00;;;16.20;70.60;;;;;;5072761;28;20094;-36
2021/10/04 09:40:28;;;;;;;4.55;1.17;;;16.00;71.60;;;;;;5054361;28;20426;-38
2021/10/04 09:42:54;;;;;;;2.63;1.10;;;16.70;70.10;;;;;;5072563;28;20048;-38
2021/10/04 09:45:20;;;;;;;8.35;3.15;;;17.60;65.10;;;;;;5054799;28;20514;-38
2021/10/04 09:47:46;;;;;;;4.45;1.70;;;17.80;65.80;;;;;;5071695;28;20031;-38
2021/10/04 09:50:29;;;;;;;7.07;1.60;;;17.40;65.80;;;;;;5072157;28;20056;-37
2021/10/04 09:52:58;;;;;;;1.55;1.17;;;17.40;66.00;;;;;;5072529;28;20487;-38
2021/10/04 09:55:31;;;;;;;4.30;1.45;;;17.50;65.80;;;;;;5054698;28;20024;-39
2021/10/04 09:58:08;;;;;;;1.77;0.85;;;18.00;64.00;;;;;;5072327;28;20341;-38
2021/10/04 10:00:48;;;;;;;2.65;0.80;;;18.30;61.30;;;;;;5072344;28;20515;-37
2021/10/04 10:03:18;;;;;;;4.38;1.15;;;17.60;63.30;;;;;;5073018;28;20016;-37
2021/10/04 10:05:46;;;;;;;2.28;1.20;;;17.60;63.30;;;;;;5071632;28;20127;-38
2021/10/04 10:08:14;;;;;;;3.50;1.05;;;17.30;65.30;;;;;;5071856;28;20052;-38
2021/10/04 10:10:43;;;;;;;2.67;0.93;;;17.80;62.10;;;;;;5072480;28;20027;-39
2021/10/04 10:13:11;;;;;;;3.53;0.93;;;17.90;63.60;;;;;;5071820;28;20112;-38
2021/10/04 10:15:38;;;;;;;7.85;1.38;;;18.20;61.60;;;;;;5072151;28;20021;-38
2021/10/04 10:18:21;;;;;;;8.40;1.20;;;17.80;63.30;;;;;;5071464;28;20092;-38
2021/10/04 10:20:57;;;;;;;2.35;0.95;;;17.30;64.70;;;;;;5071846;28;20032;-38
2021/10/04 10:23:41;;;;;;;3.33;1.20;;;17.10;64.60;;;;;;5071826;28;20032;-37
2021/10/04 10:26:30;;;;;;;5.45;1.00;;;17.10;64.70;;;;;;5071651;28;20104;-39
2021/10/04 10:29:19;;;;;;;11.02;1.48;;;16.60;66.90;;;;;;5072409;28;20469;-39
2021/10/04 10:31:48;;;;;;;1.25;0.85;;;16.40;67.00;;;;;;5071767;28;20121;-38
2021/10/04 10:34:32;;;;;;;4.85;1.80;;;16.50;65.50;;;;;;5071295;28;20100;-38
2021/10/04 10:37:11;;;;;;;2.78;1.15;;;16.70;65.30;;;;;;5072148;28;20028;-38
2021/10/04 10:39:46;;;;;;;3.22;1.00;;;17.00;64.20;;;;;;5072446;28;20376;-38
2021/10/04 10:42:27;;;;;;;2.97;1.05;;;17.40;62.60;;;;;;5072009;28;20361;-38
2021/10/04 10:44:56;;;;;;;3.17;1.60;;;17.20;64.30;;;;;;5071495;28;20036;-38
2021/10/04 10:47:39;;;;;;;8.38;1.17;;;17.50;63.10;;;;;;5071546;28;20036;-38
2021/10/04 10:50:27;;;;;;;2.67;1.10;;;18.00;61.50;;;;;;5072173;28;20028;-39
2021/10/04 10:52:58;;;;;;;3.30;1.23;;;17.80;61.70;;;;;;5071922;28;20141;-40
2021/10/04 10:55:24;;;;;;;2.65;1.10;;;17.20;63.40;;;;;;5071924;28;20024;-38
2021/10/04 10:57:52;;;;;;;9.55;2.30;;;17.10;65.00;;;;;;5071469;28;20066;-37
2021/10/04 11:00:25;;;;;;;4.35;1.48;;;17.10;64.00;;;;;;5074355;28;20052;-39
2021/10/04 11:02:52;;;;;;;2.50;1.35;;;16.90;64.80;;;;;;5057316;28;20020;-38
2021/10/04 11:05:39;;;;;;;6.32;1.55;;;17.30;64.10;;;;;;5075143;28;20041;-38
2021/10/04 11:08:09;;;;;;;4.70;1.10;;;17.10;63.50;;;;;;5075772;28;20416;-38
2021/10/04 11:10:35;;;;;;;7.05;0.95;;;17.00;64.70;;;;;;5075193;28;20095;-37
2021/10/04 11:13:07;;;;;;;8.45;1.92;;;17.10;64.10;;;;;;5057387;28;20123;-38
2021/10/04 11:15:34;;;;;;;7.25;1.58;;;17.30;64.00;;;;;;5075453;28;20029;-40
2021/10/04 11:18:00;;;;;;;15.13;1.45;;;17.00;65.20;;;;;;5075451;28;20127;-38
2021/10/04 11:20:26;;;;;;;4.60;1.45;;;17.90;62.70;;;;;;5075016;28;20085;-38
2021/10/04 11:23:25;;;;;;;5.30;1.45;;;17.80;62.50;;;;;;5075071;28;20032;-37
2021/10/04 11:25:53;;;;;;;5.25;1.23;;;17.80;62.60;;;;;;5030807;28;20090;-37
2021/10/04 11:28:21;;;;;;;4.40;1.15;;;18.10;61.80;;;;;;5075111;28;20070;-38
2021/10/04 11:31:06;;;;;;;3.40;1.33;;;18.70;58.70;;;;;;5075229;28;20036;-38
2021/10/04 11:33:36;;;;;;;5.75;1.30;;;18.20;60.20;;;;;;5075091;28;20198;-38
2021/10/04 11:36:07;;;;;;;3.38;1.00;;;18.60;59.00;;;;;;5075347;28;20032;-36
2021/10/04 11:38:36;;;;;;;2.53;0.80;;;19.20;54.80;;;;;;5057254;28;20082;-38
2021/10/04 11:41:03;;;;;;;1.63;1.00;;;18.60;57.80;;;;;;5074938;28;20037;-38
2021/10/04 11:43:30;;;;;;;6.03;1.10;;;19.00;57.00;;;;;;5074927;28;20039;-37
2021/10/04 11:45:56;;;;;;;2.10;0.80;;;19.00;56.80;;;;;;5075740;28;20108;-39
2021/10/04 11:48:33;;;;;;;3.35;1.08;;;19.00;57.80;;;;;;5074767;28;20067;-39
2021/10/04 11:51:00;;;;;;;8.73;1.38;;;19.40;54.80;;;;;;5075645;28;20457;-39
2021/10/04 11:53:29;;;;;;;6.03;1.15;;;18.80;55.30;;;;;;5075095;28;20579;-39
2021/10/04 11:56:06;;;;;;;2.55;1.30;;;18.70;56.30;;;;;;5074837;28;20456;-38
2021/10/04 11:58:32;;;;;;;3.50;0.90;;;18.50;58.20;;;;;;5056513;28;20032;-38
2021/10/04 12:00:58;;;;;;;5.80;0.80;;;17.80;57.40;;;;;;5056530;28;20155;-38
2021/10/04 12:03:29;;;;;;;6.63;1.98;;;17.80;57.70;;;;;;5074551;28;20112;-38
2021/10/04 12:05:59;;;;;;;6.35;1.80;;;17.80;58.50;;;;;;5073819;28;20070;-39
2021/10/04 12:08:35;;;;;;;2.10;0.95;;;17.60;58.60;;;;;;5056974;28;20024;-38
2021/10/04 12:11:03;;;;;;;5.80;1.40;;;17.50;59.30;;;;;;5074028;28;20468;-38
2021/10/04 12:13:34;;;;;;;3.90;1.00;;;17.80;58.70;;;;;;5074724;28;20503;-37
2021/10/04 12:16:05;;;;;;;4.43;1.30;;;17.80;59.70;;;;;;5074253;28;20542;-37
2021/10/04 12:18:33;;;;;;;1.90;0.90;;;17.50;59.00;;;;;;5074417;28;20028;-38
2021/10/04 12:21:27;;;;;;;3.63;1.05;;;17.70;59.30;;;;;;5074371;28;20029;-38
2021/10/04 12:24:09;;;;;;;4.75;1.30;;;17.60;59.40;;;;;;5074556;28;20032;-37
2021/10/04 12:26:56;;;;;;;1.52;0.98;;;17.80;58.70;;;;;;5074162;28;20058;-38
2021/10/04 12:30:00;;;;;;;3.45;1.27;;;17.80;58.30;;;;;;5074180;28;20024;-37
2021/10/04 12:32:37;;;;;;;3.83;0.90;;;17.80;57.50;;;;;;5069802;28;20037;-38
2021/10/04 12:35:23;;;;;;;9.65;1.27;;;17.90;57.40;;;;;;5056204;28;20052;-39
2021/10/04 12:38:02;;;;;;;1.70;0.68;;;17.50;57.80;;;;;;5074317;28;20016;-38
2021/10/04 12:40:46;;;;;;;3.40;0.90;;;17.50;57.30;;;;;;5073628;28;20119;-38
2021/10/04 12:43:23;;;;;;;3.72;1.15;;;17.40;58.00;;;;;;5073761;28;20033;-38
2021/10/04 12:45:57;;;;;;;2.40;0.85;;;17.40;58.30;;;;;;5073641;28;20039;-39
2021/10/04 12:48:25;;;;;;;4.25;1.35;;;17.20;59.10;;;;;;5073611;28;20021;-39
2021/10/04 12:51:03;;;;;;;3.40;0.90;;;17.40;59.40;;;;;;5055649;28;20051;-38